createdAt,value
2019-06-26T00:04:00.506Z,11.53
2019-06-26T00:09:08.166Z,11.23
2019-06-26T00:14:13.582Z,11.87
2019-06-26T00:19:18.565Z,11.73
2019-06-26T00:24:23.933Z,11.63
2019-06-26T00:29:29.537Z,11.93
2019-06-26T00:34:34.949Z,12.20
2019-06-26T00:39:40.386Z,12.20
2019-06-26T00:44:46.356Z,12.37
2019-06-26T00:49:51.464Z,11.77
2019-06-26T00:54:56.961Z,16.53
2019-06-26T01:00:04.455Z,9.97
2019-06-26T01:05:11.108Z,10.23
2019-06-26T01:10:16.941Z,10.27
2019-06-26T01:15:22.163Z,10.17
2019-06-26T01:20:27.228Z,9.73
2019-06-26T01:25:32.670Z,10.10
2019-06-26T01:30:38.027Z,9.53
2019-06-26T01:35:43.765Z,10.43
2019-06-26T01:40:49.017Z,9.30
2019-06-26T01:45:57.447Z,10.27
2019-06-26T01:51:05.656Z,10.00
2019-06-26T01:56:10.730Z,10.27
2019-06-26T02:01:16.469Z,9.77
2019-06-26T02:06:21.769Z,9.87
2019-06-26T02:11:27.143Z,9.97
2019-06-26T02:16:32.659Z,10.40
2019-06-26T02:21:38.443Z,9.97
2019-06-26T02:26:43.504Z,10.80
2019-06-26T02:31:49.332Z,9.07
2019-06-26T02:36:53.961Z,10.03
2019-06-26T02:41:59.012Z,10.33
2019-06-26T02:47:18.241Z,10.23
2019-06-26T02:52:11.074Z,10.00
2019-06-26T02:57:16.265Z,9.83
2019-06-26T03:02:23.849Z,10.50
2019-06-26T03:07:29.237Z,10.17
2019-06-26T03:12:34.444Z,9.50
2019-06-26T03:17:54.187Z,9.37
2019-06-26T03:22:46.865Z,9.47
2019-06-26T03:27:52.351Z,9.70
2019-06-26T03:32:57.654Z,9.47
2019-06-26T03:38:03.074Z,9.63
2019-06-26T03:43:11.001Z,10.30
2019-06-26T03:48:16.603Z,10.03
2019-06-26T03:53:21.806Z,10.23
2019-06-26T03:58:27.617Z,10.73
2019-06-26T04:03:33.207Z,11.30
2019-06-26T04:08:38.734Z,10.07
2019-06-26T04:13:43.676Z,11.47
2019-06-26T04:18:49.014Z,14.70
2019-06-26T04:23:54.834Z,12.63
2019-06-26T04:29:00.331Z,19.53
2019-06-26T04:34:05.786Z,16.20
2019-06-26T04:39:10.976Z,15.67
2019-06-26T04:44:16.546Z,15.80
2019-06-26T04:49:21.822Z,16.33
2019-06-26T04:54:28.092Z,16.83
2019-06-26T04:59:33.558Z,17.07
2019-06-26T05:04:39.351Z,25.07
2019-06-26T05:09:45.232Z,22.43
2019-06-26T05:14:51.040Z,19.87
2019-06-26T05:19:59.831Z,17.80
2019-06-26T05:25:05.382Z,17.27
2019-06-26T05:30:10.960Z,24.50
2019-06-26T05:35:16.305Z,17.63
2019-06-26T05:40:21.705Z,16.17
2019-06-26T05:45:27.407Z,17.20
2019-06-26T05:50:32.457Z,24.30
2019-06-26T05:55:38.038Z,24.43
2019-06-26T06:00:43.404Z,25.77
2019-06-26T06:05:48.875Z,24.40
2019-06-26T06:10:58.024Z,18.63
2019-06-26T06:16:01.662Z,17.97
2019-06-26T06:21:06.874Z,18.23
2019-06-26T06:26:39.837Z,25.87
2019-06-26T06:31:48.362Z,19.00
2019-06-26T06:36:55.573Z,25.57
2019-06-26T06:42:02.358Z,21.20
2019-06-26T06:47:09.148Z,18.97
2019-06-26T06:52:16.631Z,28.00
2019-06-26T06:57:21.420Z,25.00
2019-06-26T07:02:27.026Z,26.63
2019-06-26T07:07:32.365Z,21.93
2019-06-26T07:12:37.733Z,25.57
2019-06-26T07:17:43.315Z,27.07
2019-06-26T07:22:48.604Z,29.17
2019-06-26T07:27:54.130Z,22.50
2019-06-26T07:32:59.650Z,27.20
2019-06-26T07:38:05.059Z,20.47
2019-06-26T07:43:11.020Z,30.73
2019-06-26T07:48:16.274Z,27.20
2019-06-26T07:53:21.993Z,21.73
2019-06-26T07:58:27.400Z,23.33
2019-06-26T08:03:32.928Z,26.43
2019-06-26T08:08:38.441Z,25.53
2019-06-26T08:13:43.805Z,19.83
2019-06-26T08:18:49.324Z,18.20
2019-06-26T08:23:55.078Z,22.87
2019-06-26T08:29:00.419Z,24.33
2019-06-26T08:34:05.843Z,18.73
2019-06-26T08:39:10.888Z,19.87
2019-06-26T08:44:15.406Z,20.20
2019-06-26T08:49:25.631Z,16.83
2019-06-26T08:54:27.442Z,12.77
2019-06-26T08:59:32.585Z,18.43
2019-06-26T09:04:40.405Z,17.10
2019-06-26T09:09:45.455Z,17.57
2019-06-26T09:14:51.537Z,15.40
2019-06-26T09:19:56.507Z,19.53
2019-06-26T09:25:16.853Z,11.87
2019-06-26T09:30:09.657Z,17.23
2019-06-26T09:35:15.667Z,14.43
2019-06-26T09:40:21.160Z,15.77
2019-06-26T09:45:26.347Z,13.53
2019-06-26T09:50:32.867Z,27.45
2019-06-26T09:55:38.181Z,15.43
2019-06-26T10:00:43.837Z,20.77
2019-06-26T10:05:49.463Z,17.20
2019-06-26T10:10:54.730Z,18.17
2019-06-26T10:16:00.723Z,31.02
2019-06-26T10:21:06.092Z,34.03
2019-06-26T10:26:11.053Z,34.70
2019-06-26T10:31:18.370Z,29.27
2019-06-26T10:36:24.587Z,23.40
2019-06-26T10:41:30.019Z,29.97
2019-06-26T10:46:35.608Z,25.70
2019-06-26T10:51:40.570Z,28.63
2019-06-26T10:56:45.808Z,22.25
2019-06-26T11:01:51.450Z,28.13
2019-06-26T11:06:56.535Z,30.57
2019-06-26T11:12:01.930Z,24.07
2019-06-26T11:17:06.910Z,28.07
2019-06-26T11:22:12.375Z,22.47
2019-06-26T11:27:17.774Z,20.73
2019-06-26T11:32:22.927Z,25.63
2019-06-26T11:37:28.732Z,24.20
2019-06-26T11:42:34.291Z,24.10
2019-06-26T11:47:39.586Z,20.90
2019-06-26T11:52:44.897Z,24.07
2019-06-26T11:57:50.686Z,23.43
2019-06-26T12:02:56.114Z,22.37
2019-06-26T12:08:01.533Z,21.93
2019-06-26T12:13:06.260Z,20.80
2019-06-26T12:18:11.221Z,20.93
2019-06-26T12:23:16.259Z,22.73
2019-06-26T12:28:23.012Z,25.77
2019-06-26T12:33:28.874Z,23.80
2019-06-26T12:38:34.376Z,24.27
2019-06-26T12:43:38.949Z,18.40
2019-06-26T12:48:44.786Z,22.23
2019-06-26T12:53:49.941Z,20.57
2019-06-26T12:58:55.229Z,22.97
2019-06-26T13:04:00.757Z,18.07
2019-06-26T13:09:07.751Z,20.23
2019-06-26T13:14:12.871Z,20.97
2019-06-26T13:19:18.137Z,25.53
2019-06-26T13:24:23.635Z,17.77
2019-06-26T13:29:29.553Z,21.70
2019-06-26T13:34:34.759Z,21.73
2019-06-26T13:39:39.845Z,18.73
2019-06-26T13:44:45.937Z,26.33
2019-06-26T13:49:51.365Z,28.43
2019-06-26T13:59:56.634Z,25.10
2019-06-26T14:05:08.133Z,25.23
2019-06-26T14:10:13.992Z,21.23
2019-06-26T14:15:19.438Z,20.70
2019-06-26T14:20:25.124Z,18.20
2019-06-26T14:25:30.080Z,14.27
2019-06-26T14:30:36.673Z,12.97
2019-06-26T14:35:42.455Z,14.63
2019-06-26T14:40:47.437Z,13.87
2019-06-26T14:45:52.861Z,14.37
2019-06-26T14:51:00.202Z,11.90
2019-06-26T14:56:05.867Z,11.17
2019-06-26T15:01:10.944Z,10.37
2019-06-26T15:06:17.333Z,14.23
2019-06-26T15:11:23.040Z,14.73
2019-06-26T15:16:30.495Z,13.27
2019-06-26T15:21:35.284Z,15.33
2019-06-26T15:26:42.954Z,18.80
2019-06-26T15:31:48.335Z,18.37
2019-06-26T15:36:54.316Z,17.13
2019-06-26T15:42:02.578Z,17.30
2019-06-26T15:47:08.640Z,16.07
2019-06-26T15:52:15.463Z,14.73
2019-06-26T15:57:21.980Z,13.50
2019-06-26T16:02:27.687Z,15.17
2019-06-26T16:07:33.311Z,14.50
2019-06-26T16:12:39.172Z,14.07
2019-06-26T16:18:13.056Z,12.33
2019-06-26T16:23:20.745Z,11.60
2019-06-26T16:28:25.897Z,10.73
2019-06-26T16:33:30.973Z,7.83
2019-06-26T16:38:36.774Z,10.93
2019-06-26T16:43:41.991Z,8.87
2019-06-26T16:48:47.178Z,10.40
2019-06-26T16:53:52.688Z,10.10
2019-06-26T16:58:57.967Z,10.30
2019-06-26T17:04:03.907Z,9.83
2019-06-26T17:15:16.981Z,9.77
2019-06-26T17:20:22.520Z,9.80
2019-06-26T17:25:27.821Z,8.10
2019-06-26T17:30:35.502Z,8.73
2019-06-26T17:35:41.446Z,8.40
2019-06-26T17:40:47.276Z,9.03
2019-06-26T17:45:54.162Z,10.07
2019-06-26T17:50:59.588Z,9.80
2019-06-26T17:56:04.972Z,7.87
2019-06-26T18:01:10.798Z,8.00
2019-06-26T18:06:16.700Z,6.63
2019-06-26T18:11:22.278Z,8.17
2019-06-26T18:16:30.526Z,8.10
2019-06-26T18:21:36.189Z,7.97
2019-06-26T18:26:41.374Z,8.07
2019-06-26T18:31:46.930Z,7.27
2019-06-26T18:36:52.804Z,6.60
2019-06-26T18:41:58.550Z,6.93
2019-06-26T18:47:03.622Z,6.27
2019-06-26T18:52:08.748Z,6.10
2019-06-26T18:57:14.063Z,5.70
2019-06-26T19:02:19.498Z,6.60
2019-06-26T19:07:25.070Z,7.10
2019-06-26T19:12:29.811Z,6.03
2019-06-26T19:17:35.164Z,6.03
2019-06-26T19:22:40.654Z,6.27
2019-06-26T19:27:49.359Z,6.47
2019-06-26T19:32:54.362Z,6.73
2019-06-26T19:37:59.806Z,5.80
2019-06-26T19:43:05.163Z,5.87
2019-06-26T19:48:10.508Z,5.73
2019-06-26T19:53:15.495Z,7.20
2019-06-26T19:58:21.681Z,5.37
2019-06-26T20:03:27.180Z,5.93
2019-06-26T20:08:32.701Z,6.83
2019-06-26T20:13:37.932Z,6.10
2019-06-26T20:18:43.683Z,5.90
2019-06-26T20:23:48.811Z,5.67
2019-06-26T20:28:54.216Z,6.43
2019-06-26T20:33:59.878Z,5.90
2019-06-26T20:39:06.145Z,5.10
2019-06-26T20:44:11.281Z,5.10
2019-06-26T20:49:16.687Z,4.50
2019-06-26T20:54:22.285Z,5.53
2019-06-26T20:59:27.517Z,4.27
2019-06-26T21:04:33.586Z,4.70
2019-06-26T21:09:38.788Z,4.20
2019-06-26T21:14:44.717Z,4.37
2019-06-26T21:19:50.022Z,4.37
2019-06-26T21:24:55.301Z,4.23
2019-06-26T21:30:00.686Z,4.70
2019-06-26T21:35:08.417Z,4.47
2019-06-26T21:40:13.975Z,2.53
2019-06-26T21:45:21.322Z,2.97
2019-06-26T21:50:29.111Z,2.70
2019-06-26T21:55:35.065Z,2.67
2019-06-26T22:00:40.865Z,2.57
2019-06-26T22:05:46.408Z,2.53
2019-06-26T22:10:51.902Z,3.03
2019-06-26T22:15:57.110Z,2.20
2019-06-26T22:21:02.072Z,2.70
2019-06-26T22:26:07.343Z,3.10
2019-06-26T22:31:12.450Z,2.83
2019-06-26T22:36:17.975Z,2.83
2019-06-26T22:41:23.109Z,2.20
2019-06-26T22:46:28.583Z,2.17
2019-06-26T22:51:33.765Z,1.70
2019-06-26T22:56:39.566Z,2.00
2019-06-26T23:01:45.009Z,2.20
2019-06-26T23:06:50.166Z,2.10
2019-06-26T23:11:57.437Z,1.90
2019-06-26T23:17:02.487Z,2.70
2019-06-26T23:22:07.450Z,2.67
2019-06-26T23:27:11.991Z,2.73
2019-06-26T23:32:17.176Z,3.17
2019-06-26T23:37:22.997Z,2.80
2019-06-26T23:42:28.372Z,2.40
2019-06-26T23:47:33.805Z,2.63
2019-06-26T23:52:39.993Z,2.80
2019-06-26T23:57:58.410Z,2.90
